• Join FlightAware (Why Join?)
  • Login
  • US Flag 
04:50AM EDT


 

Airport Tracker/Info


-or-


 

Live Flight TrackerFlight Track Log ✈ TCF5990 ✈ 29-Apr-2012 ✈ KLGA - KCMH

Flight Track Log - Related Links

Times and Time Zones

All times are in EDT time to prevent confusion due to time zone crossing. See the TCF5990 flight status page for this flight to view local times or setup timezone preferences in your user account.

Time Position Orientation Groundspeed Altitude Reporting Facility
EDT Latitude Longitude Course Direction KTS MPH feet Rate Location/Type
01:54PM 40.7716 -73.9032 347° North  Level FlightAware Approximate
01:55PM 40.8667 -73.9333 255° West 227 261 5,800  Level New York TRACON
01:56PM 40.8500 -74.0167 270° West 224 258 9,600 3,240 Climbing New York TRACON
01:57PM 40.8500 -74.0833 270° West 230 265 12,300 2,640 Climbing New York TRACON
01:58PM 40.8500 -74.1833 258° West 273 314 14,900 2,220 Climbing New York TRACON
01:59PM 40.8333 -74.2833 270° West 307 353 16,600 1,020 Climbing New York TRACON
02:00PM 40.8333 -74.4000 270° West 308 354 17,000 180 Climbing New York TRACON
02:01PM 40.8333 -74.5167 266° West 307 353 17,000 240 Level New York TRACON
02:03PM 40.8231 -74.7117 262° West 313 360 17,700 900 Climbing New York Center
02:04PM 40.8111 -74.8178 249° West 313 360 19,600 2,040 Climbing New York Center
02:05PM 40.7778 -74.9336 251° West 320 368 21,900 2,040 Climbing New York Center
02:06PM 40.7464 -75.0550 250° West 340 391 23,700 1,680 Climbing New York Center
02:07PM 40.7128 -75.1761 251° West 351 404 25,400 1,560 Climbing New York Center
02:08PM 40.6789 -75.3025 250° West 363 418 26,800 1,320 Climbing New York Center
02:09PM 40.6447 -75.4289 250° West 363 418 28,000 1,140 Climbing New York Center
02:10PM 40.6081 -75.5631 250° West 374 430 29,100 1,380 Climbing New York Center
02:11PM 40.5714 -75.6944 250° West 382 440 30,800 1,500 Climbing New York Center
02:12PM 40.5347 -75.8256 248° West 382 440 32,100 1,380 Climbing New York Center
02:13PM 40.4958 -75.9536 249° West 382 440 33,600 1,080 Climbing New York Center
02:14PM 40.4589 -76.0819 249° West 382 440 34,400 780 Climbing New York Center
02:15PM 40.4169 -76.2233 250° West 382 440 35,200 660 Climbing New York Center
02:16PM 40.3844 -76.3378 251° West 382 440 35,800 360 Climbing New York Center
02:17PM 40.3514 -76.4606 245° Southwest 382 440 36,000 60 Climbing New York Center
02:18PM 40.3081 -76.5847 252° West 382 440 36,000  Level New York Center
02:19PM 40.2769 -76.7075 256° West 377 434 36,000  Level New York Center
02:20PM 40.2539 -76.8306 267° West 365 420 36,000  Level New York Center
02:21PM 40.2492 -76.9608 266° West 350 403 36,000  Level New York Center
02:22PM 40.2431 -77.0800 267° West 344 396 36,000  Level New York Center
02:23PM 40.2375 -77.2208 268° West 344 396 36,000  Level New York Center
02:24PM 40.2350 -77.3375 267° West 344 396 36,000  Level New York Center
02:26PM 40.2228 -77.6300 265° West 350 403 36,000  Level Cleveland Center
02:27PM 40.2153 -77.7472 265° West 343 395 36,000  Level Cleveland Center
02:28PM 40.2078 -77.8700 265° West 343 395 36,000  Level Cleveland Center
02:29PM 40.2000 -77.9789 266° West 337 388 36,000  Level Cleveland Center
02:30PM 40.1942 -78.0961 267° West 337 388 36,000  Level Cleveland Center
02:31PM 40.1886 -78.2158 265° West 332 382 36,000  Level Cleveland Center
02:32PM 40.1806 -78.3383 266° West 332 382 36,000  Level Cleveland Center
02:33PM 40.1744 -78.4556 265° West 332 382 36,000  Level Cleveland Center
02:34PM 40.1661 -78.5753 266° West 332 382 36,000  Level Cleveland Center
02:35PM 40.1600 -78.6922 266° West 332 382 36,000  Level Cleveland Center
02:36PM 40.1536 -78.8147 265° West 332 382 36,000  Level Cleveland Center
02:37PM 40.1450 -78.9344 266° West 332 382 36,000  Level Cleveland Center
02:38PM 40.1383 -79.0569 266° West 332 382 36,000  Level Cleveland Center
02:39PM 40.1314 -79.1764 265° West 332 382 36,000  Level Cleveland Center
02:40PM 40.1225 -79.2989 267° West 332 382 36,000 -540 Level Cleveland Center
02:41PM 40.1175 -79.4239 266° West 337 388 35,000 -1,140 Descending Cleveland Center
02:42PM 40.1106 -79.5517 264° West 347 399 33,800 -1,260 Descending Cleveland Center
02:43PM 40.1011 -79.6767 264° West 347 399 32,500 -900 Descending Cleveland Center
02:44PM 40.0917 -79.8017 266° West 347 399 32,000 -300 Descending Cleveland Center
02:45PM 40.0842 -79.9344 263° West 352 405 32,000  Level Cleveland Center
02:46PM 40.0703 -80.0811 267° West 368 423 32,000 -120 Level Cleveland Center
02:47PM 40.0664 -80.1953 264° West 368 423 31,800 -540 Descending Cleveland Center
02:48PM 40.0564 -80.3281 264° West 368 423 31,000 -840 Descending Cleveland Center
02:49PM 40.0442 -80.4719 265° West 368 423 30,200 -900 Descending Cleveland Center
02:50PM 40.0358 -80.6019 264° West 368 423 29,300 -900 Descending Cleveland Center
02:51PM 40.0253 -80.7322 261° West 368 423 28,500 -900 Descending Cleveland Center
02:52PM 40.0106 -80.8569 256° West 368 423 27,600 -1,380 Descending Cleveland Center
02:53PM 39.9850 -80.9867 255° West 373 429 25,800 -1,800 Descending Cleveland Center
02:54PM 39.9597 -81.1111 256° West 373 429 24,100 -1,740 Descending Cleveland Center
02:55PM 39.9361 -81.2328 257° West 362 417 22,400 -1,680 Descending Cleveland Center
02:56PM 39.9214 -81.3183 256° West 350 403 21,300 -1,620 Descending Indianapolis Center
02:57PM 39.9006 -81.4300 255° West 334 384 19,700 -1,560 Descending Indianapolis Center
02:58PM 39.8775 -81.5417 255° West 328 377 18,200 -1,560 Descending Indianapolis Center
02:59PM 39.8542 -81.6531 256° West 318 366 16,600 -1,560 Descending Indianapolis Center
03:00PM 39.8331 -81.7619 255° West 318 366 15,100 -1,500 Descending Indianapolis Center
03:01PM 39.8117 -81.8678 254° West 313 360 13,700 -1,440 Descending Indianapolis Center
03:02PM 39.7900 -81.9656 257° West 304 350 12,400 -1,440 Descending Indianapolis Center
03:03PM 39.7725 -82.0633 273° West 302 348 11,100 -1,320 Descending Indianapolis Center
03:04PM 39.7758 -82.1578 283° West 292 336 10,000 -600 Descending Indianapolis Center
03:05PM 39.7936 -82.2600 281° West 288 331 10,000  Level Indianapolis Center
03:06PM 39.8094 -82.3625 283° West 288 331 10,000  Level Indianapolis Center
03:07PM 39.8292 -82.4756 280° West 297 342 10,000  Level Indianapolis Center
03:08PM 39.8447 -82.5864 281° West 292 336 10,000  Level Indianapolis Center
03:09PM 39.8581 -82.6781 283° West 291 335 10,000 -720 Level Indianapolis Center
03:10PM 39.8753 -82.7725 284° West 270 311 8,800 -1,500 Descending Indianapolis Center
03:11PM 39.8925 -82.8644 282° West 259 298 7,000 -1,500 Descending Indianapolis Center
03:12PM 39.9056 -82.9453 285° West 249 287 6,000 -1,380 Descending Indianapolis Center
03:13PM 39.9225 -83.0264 301° West 231 266 4,400 -1,380 Descending Indianapolis Center
03:14PM 39.9519 -83.0911 22° Northeast 231 266 3,300 -660 Descending Indianapolis Center
03:15PM 40.0000 -83.0664 79° East 180 207 3,100 -480 Descending Indianapolis Center
03:16PM 40.0081 -83.0122 94° East 161 185 2,400 -780 Descending Indianapolis Center
03:17PM 40.0056 -82.9608 94° East 134 154 1,600 -840 Descending Indianapolis Center